createdAt,value
2022-12-29T00:01:39.260Z,25.92
2022-12-29T00:04:11.326Z,26.33
2022-12-29T00:06:40.931Z,24.30
2022-12-29T00:09:07.385Z,24.52
2022-12-29T00:11:33.909Z,24.15
2022-12-29T00:14:24.197Z,24.58
2022-12-29T00:16:52.375Z,24.85
2022-12-29T00:19:37.247Z,25.10
2022-12-29T00:22:22.199Z,24.48
2022-12-29T00:24:54.594Z,24.40
2022-12-29T00:27:39.731Z,25.25
2022-12-29T00:30:28.722Z,26.02
2022-12-29T00:33:13.592Z,24.17
2022-12-29T00:35:45.249Z,24.80
2022-12-29T00:38:30.076Z,24.08
2022-12-29T00:41:15.101Z,22.88
2022-12-29T00:44:00.282Z,24.17
2022-12-29T00:46:26.702Z,22.63
2022-12-29T00:49:11.557Z,24.05
2022-12-29T00:51:37.961Z,23.63
2022-12-29T00:54:04.407Z,22.90
2022-12-29T00:56:30.810Z,22.55
2022-12-29T00:59:00.563Z,22.90
2022-12-29T01:01:27.154Z,24.13
2022-12-29T01:03:56.325Z,21.90
2022-12-29T01:06:26.711Z,24.17
2022-12-29T01:09:11.584Z,22.70
2022-12-29T01:11:38.504Z,20.88
2022-12-29T01:14:05.403Z,23.48
2022-12-29T01:16:32.083Z,22.05
2022-12-29T01:18:58.822Z,22.00
2022-12-29T01:21:25.246Z,21.95
2022-12-29T01:23:51.788Z,22.30
2022-12-29T01:26:18.647Z,22.60
2022-12-29T01:28:45.268Z,21.80
2022-12-29T01:31:12.561Z,22.25
2022-12-29T01:33:39.404Z,22.25
2022-12-29T01:36:07.217Z,22.27
2022-12-29T01:38:34.276Z,22.35
2022-12-29T01:41:00.791Z,20.58
2022-12-29T01:43:44.289Z,22.58
2022-12-29T01:46:31.328Z,24.17
2022-12-29T01:49:00.564Z,23.95
2022-12-29T01:51:28.282Z,22.30
2022-12-29T01:53:56.823Z,21.17
2022-12-29T01:56:24.706Z,25.00
2022-12-29T01:58:54.722Z,24.40
2022-12-29T02:01:21.818Z,24.73
2022-12-29T02:03:49.574Z,23.23
2022-12-29T02:06:18.582Z,22.98
2022-12-29T02:08:47.129Z,23.05
2022-12-29T02:11:14.299Z,22.75
2022-12-29T02:13:40.722Z,23.23
2022-12-29T02:16:22.667Z,22.02
2022-12-29T02:19:07.582Z,23.60
2022-12-29T02:21:55.223Z,23.17
2022-12-29T02:24:27.447Z,25.42
2022-12-29T02:27:12.460Z,25.00
2022-12-29T02:29:38.867Z,26.50
2022-12-29T02:32:11.236Z,27.15
2022-12-29T02:34:43.749Z,25.33
2022-12-29T02:37:12.956Z,24.65
2022-12-29T02:39:40.559Z,24.50
2022-12-29T02:42:06.957Z,24.05
2022-12-29T02:44:39.605Z,22.50
2022-12-29T02:47:10.745Z,24.45
2022-12-29T02:49:43.786Z,18.48
2022-12-29T02:52:16.955Z,23.02
2022-12-29T02:54:43.513Z,24.13
2022-12-29T02:57:30.248Z,25.67
2022-12-29T02:59:59.408Z,25.15
2022-12-29T03:02:46.171Z,24.10
2022-12-29T03:05:15.595Z,23.63
2022-12-29T03:07:42.129Z,23.50
2022-12-29T03:10:08.524Z,23.40
2022-12-29T03:13:22.351Z,23.63
2022-12-29T03:16:06.614Z,24.10
2022-12-29T03:18:33.983Z,24.23
2022-12-29T03:21:49.680Z,24.90
2022-12-29T03:24:17.451Z,24.65
2022-12-29T03:26:47.151Z,24.00
2022-12-29T03:29:14.927Z,24.02
2022-12-29T03:31:42.240Z,24.60
2022-12-29T03:34:09.447Z,23.13
2022-12-29T03:36:48.425Z,22.88
2022-12-29T03:39:14.879Z,24.75
2022-12-29T03:41:42.829Z,22.98
2022-12-29T03:44:09.390Z,23.67
2022-12-29T03:46:36.345Z,23.23
2022-12-29T03:49:02.912Z,22.40
2022-12-29T03:51:29.338Z,23.55
2022-12-29T03:53:55.860Z,23.55
2022-12-29T03:56:22.297Z,21.77
2022-12-29T03:58:48.713Z,21.52
2022-12-29T04:01:15.245Z,22.27
2022-12-29T04:03:41.937Z,22.88
2022-12-29T04:06:08.841Z,20.17
2022-12-29T04:08:35.280Z,23.73
2022-12-29T04:11:01.801Z,44.70
2022-12-29T04:13:28.225Z,40.55
2022-12-29T04:15:54.733Z,33.17
2022-12-29T04:18:21.167Z,29.65
2022-12-29T04:21:03.820Z,25.17
2022-12-29T04:23:39.748Z,50.33
2022-12-29T04:26:10.273Z,27.65
2022-12-29T04:28:36.978Z,22.92
2022-12-29T04:31:04.324Z,22.35
2022-12-29T04:33:30.811Z,21.50
2022-12-29T04:35:57.210Z,19.98
2022-12-29T04:38:24.282Z,20.73
2022-12-29T04:40:51.577Z,19.27
2022-12-29T04:43:20.244Z,18.35
2022-12-29T04:45:47.272Z,17.95
2022-12-29T04:48:13.899Z,18.73
2022-12-29T04:50:40.904Z,17.90
2022-12-29T04:53:07.451Z,17.73
2022-12-29T04:55:34.026Z,17.15
2022-12-29T04:58:01.119Z,16.88
2022-12-29T05:00:27.552Z,19.55
2022-12-29T05:02:54.187Z,19.48
2022-12-29T05:05:20.786Z,18.52
2022-12-29T05:07:47.259Z,17.42
2022-12-29T05:10:13.718Z,18.33
2022-12-29T05:12:40.953Z,18.08
2022-12-29T05:15:08.303Z,18.40
2022-12-29T05:17:34.844Z,17.98
2022-12-29T05:20:01.303Z,16.92
2022-12-29T05:22:27.870Z,16.83
2022-12-29T05:24:54.308Z,16.58
2022-12-29T05:27:20.731Z,17.20
2022-12-29T05:29:47.139Z,16.60
2022-12-29T05:32:13.601Z,17.98
2022-12-29T05:34:41.195Z,17.10
2022-12-29T05:37:07.680Z,17.63
2022-12-29T05:39:34.210Z,17.85
2022-12-29T05:42:00.753Z,17.65
2022-12-29T05:44:27.255Z,17.10
2022-12-29T05:46:53.865Z,15.45
2022-12-29T05:49:20.342Z,18.77
2022-12-29T05:51:46.807Z,17.90
2022-12-29T05:54:13.293Z,19.35
2022-12-29T05:56:39.716Z,18.88
2022-12-29T05:59:06.111Z,18.15
2022-12-29T06:01:32.671Z,19.40
2022-12-29T06:03:59.656Z,21.70
2022-12-29T06:06:26.219Z,19.83
2022-12-29T06:08:52.977Z,21.35
2022-12-29T06:11:19.455Z,22.50
2022-12-29T06:13:45.874Z,23.85
2022-12-29T06:16:12.450Z,22.92
2022-12-29T06:18:38.950Z,22.15
2022-12-29T06:21:06.085Z,24.85
2022-12-29T06:23:32.961Z,22.63
2022-12-29T06:25:59.412Z,25.58
2022-12-29T06:28:25.869Z,24.63
2022-12-29T06:30:52.290Z,23.05
2022-12-29T06:33:18.829Z,24.88
2022-12-29T06:35:46.847Z,23.27
2022-12-29T06:38:13.408Z,23.13
2022-12-29T06:40:40.613Z,22.17
2022-12-29T06:43:07.062Z,23.65
2022-12-29T06:45:33.793Z,23.67
2022-12-29T06:48:00.493Z,25.10
2022-12-29T06:50:26.942Z,26.08
2022-12-29T06:52:53.370Z,36.22
2022-12-29T06:55:19.787Z,31.95
2022-12-29T06:57:46.252Z,30.30
2022-12-29T07:00:15.903Z,32.15
2022-12-29T07:02:45.999Z,32.65
2022-12-29T07:05:12.553Z,32.28
2022-12-29T07:07:38.949Z,40.05
2022-12-29T07:10:05.749Z,39.05
2022-12-29T07:12:32.237Z,35.35
2022-12-29T07:14:58.635Z,34.15
2022-12-29T07:17:25.077Z,35.65
2022-12-29T07:19:51.583Z,35.30
2022-12-29T07:22:18.015Z,33.17
2022-12-29T07:24:44.780Z,31.95
2022-12-29T07:27:11.265Z,35.95
2022-12-29T07:29:38.087Z,38.28
2022-12-29T07:32:04.710Z,36.42
2022-12-29T07:34:31.297Z,37.25
2022-12-29T07:36:57.700Z,37.42
2022-12-29T07:39:24.126Z,36.83
2022-12-29T07:41:50.622Z,36.53
2022-12-29T07:44:17.104Z,34.53
2022-12-29T07:46:54.304Z,39.60
2022-12-29T07:49:23.722Z,36.67
2022-12-29T07:51:50.178Z,33.90
2022-12-29T07:54:19.506Z,30.00
2022-12-29T07:56:46.380Z,24.98
2022-12-29T07:59:13.480Z,27.67
2022-12-29T08:01:40.260Z,26.33
2022-12-29T08:04:07.568Z,26.48
2022-12-29T08:06:34.123Z,23.88
2022-12-29T08:09:11.108Z,24.20
2022-12-29T08:11:41.536Z,23.02
2022-12-29T08:14:08.156Z,22.98
2022-12-29T08:16:34.912Z,22.25
2022-12-29T08:19:01.431Z,21.77
2022-12-29T08:21:28.214Z,22.83
2022-12-29T08:23:55.244Z,21.83
2022-12-29T08:26:22.122Z,22.60
2022-12-29T08:28:48.585Z,24.40
2022-12-29T08:31:15.663Z,22.55
2022-12-29T08:33:42.109Z,23.10
2022-12-29T08:36:09.532Z,24.15
2022-12-29T15:19:26.611Z,22.08
2022-12-29T15:21:54.365Z,23.27
2022-12-29T15:24:21.512Z,24.45
2022-12-29T15:26:50.719Z,26.30
2022-12-29T15:29:31.083Z,27.40
2022-12-29T15:32:01.800Z,26.52
2022-12-29T15:34:31.069Z,29.52
2022-12-29T15:36:58.322Z,28.17
2022-12-29T15:39:31.768Z,29.98
2022-12-29T15:42:04.193Z,31.60
2022-12-29T15:44:32.965Z,29.77
2022-12-29T15:47:03.584Z,31.70
2022-12-29T15:49:32.615Z,30.23
2022-12-29T15:51:59.400Z,31.65
2022-12-29T15:54:28.300Z,32.83
2022-12-29T15:56:54.720Z,32.60
2022-12-29T15:59:26.118Z,30.55
2022-12-29T16:01:53.221Z,35.45
2022-12-29T16:04:19.924Z,35.22
2022-12-29T16:06:56.100Z,45.75
2022-12-29T16:09:55.269Z,67.35
2022-12-29T16:12:24.264Z,49.42
2022-12-29T16:15:07.574Z,48.30
2022-12-29T16:17:35.835Z,44.70
2022-12-29T16:20:22.532Z,43.72
2022-12-29T16:22:52.017Z,41.85
2022-12-29T16:25:21.671Z,41.00
2022-12-29T16:27:49.033Z,38.55
2022-12-29T16:30:26.587Z,39.90
2022-12-29T16:33:00.664Z,38.83
2022-12-29T16:35:28.982Z,42.03
2022-12-29T16:38:08.857Z,45.33
2022-12-29T16:40:38.983Z,50.88
2022-12-29T16:43:05.555Z,45.05
2022-12-29T16:45:33.591Z,43.78
2022-12-29T16:48:06.251Z,41.50
2022-12-29T16:50:34.534Z,38.00
2022-12-29T16:53:01.285Z,35.67
2022-12-29T16:55:28.693Z,35.47
2022-12-29T16:57:57.234Z,34.47
2022-12-29T17:02:59.464Z,35.83
2022-12-29T17:05:26.009Z,34.45
2022-12-29T17:07:54.622Z,29.80
2022-12-29T17:10:21.033Z,27.23
2022-12-29T17:12:50.624Z,27.40
2022-12-29T17:15:27.460Z,34.00
2022-12-29T17:17:56.850Z,30.10
2022-12-29T17:20:30.634Z,26.10
2022-12-29T17:22:59.724Z,21.58
2022-12-29T17:25:33.979Z,21.70
2022-12-29T17:28:06.545Z,21.20
2022-12-29T17:30:34.767Z,30.08
2022-12-29T17:33:03.663Z,24.73
2022-12-29T17:35:30.194Z,26.90
2022-12-29T17:37:57.340Z,28.95
2022-12-29T17:40:32.241Z,26.35
2022-12-29T17:43:00.617Z,26.63
2022-12-29T17:45:28.632Z,31.52
2022-12-29T17:47:56.632Z,27.55
2022-12-29T17:50:27.366Z,32.20
2022-12-29T17:53:00.740Z,23.30
2022-12-29T17:55:34.715Z,23.77
2022-12-29T17:58:24.519Z,24.17
2022-12-29T18:01:10.332Z,21.90
2022-12-29T18:03:39.301Z,24.33
2022-12-29T18:06:08.314Z,26.50
2022-12-29T18:08:35.411Z,29.63
2022-12-29T18:11:03.544Z,31.13
2022-12-29T18:13:43.726Z,30.65
2022-12-29T18:16:13.432Z,29.17
2022-12-29T18:18:40.080Z,27.27
2022-12-29T18:21:10.444Z,26.52
2022-12-29T18:23:39.965Z,29.13
2022-12-29T18:26:22.100Z,29.17
2022-12-29T18:28:53.867Z,30.92
2022-12-29T18:31:25.766Z,27.25
2022-12-29T18:36:21.516Z,24.85
2022-12-29T18:38:48.099Z,28.17
2022-12-29T18:41:25.865Z,28.42
2022-12-29T18:43:52.621Z,22.05
2022-12-29T18:46:23.150Z,146.57
2022-12-29T18:48:50.414Z,462.87
2022-12-29T18:51:18.775Z,391.58
2022-12-29T18:53:45.470Z,486.50
2022-12-29T18:56:12.221Z,173.98
2022-12-29T18:58:39.613Z,416.88
2022-12-29T19:01:06.650Z,146.27
2022-12-29T19:03:34.488Z,57.30
2022-12-29T19:06:01.060Z,42.53
2022-12-29T19:08:28.400Z,66.63
2022-12-29T19:10:54.940Z,73.90
2022-12-29T19:13:29.987Z,63.72
2022-12-29T19:15:57.609Z,19.60
2022-12-29T19:18:44.112Z,21.35
2022-12-29T19:21:12.208Z,16.17
2022-12-29T19:23:40.170Z,17.42
2022-12-29T19:26:06.708Z,15.45
2022-12-29T19:28:34.009Z,15.52
2022-12-29T19:31:02.350Z,13.02
2022-12-29T19:33:29.555Z,13.35
2022-12-29T19:36:01.570Z,12.23
2022-12-29T19:38:28.095Z,12.70
2022-12-29T19:48:19.666Z,13.60
2022-12-29T19:50:47.225Z,13.60
2022-12-29T19:53:13.908Z,13.98
2022-12-29T19:55:47.851Z,51.15
2022-12-29T19:58:14.613Z,22.02
2022-12-29T20:00:43.533Z,24.50
2022-12-29T20:03:10.792Z,24.42
2022-12-29T20:05:38.824Z,20.15
2022-12-29T20:08:05.795Z,18.48
2022-12-29T20:10:33.173Z,18.90
2022-12-29T20:12:59.630Z,17.95
2022-12-29T20:15:26.969Z,31.42
2022-12-29T20:20:45.040Z,18.23
2022-12-29T20:23:12.337Z,15.98
2022-12-29T20:25:47.655Z,13.57
2022-12-29T20:28:15.845Z,12.60
2022-12-29T20:30:44.848Z,14.00
2022-12-29T20:33:11.453Z,12.52
2022-12-29T20:35:37.945Z,12.45
2022-12-29T20:38:05.569Z,13.02
2022-12-29T20:40:32.037Z,16.88
2022-12-29T20:43:00.037Z,15.57
2022-12-29T20:45:26.635Z,14.52
2022-12-29T20:47:53.998Z,13.48
2022-12-29T20:50:20.922Z,11.82
2022-12-29T20:52:48.641Z,13.10
2022-12-29T20:55:15.134Z,12.35
2022-12-29T21:00:31.512Z,12.73
2022-12-29T21:02:58.655Z,14.43
2022-12-29T21:05:27.601Z,14.05
2022-12-29T21:07:54.569Z,14.57
2022-12-29T21:10:22.264Z,14.63
2022-12-29T21:12:49.017Z,13.20
2022-12-29T21:15:16.714Z,12.55
2022-12-29T21:17:43.570Z,12.90
2022-12-29T21:20:11.411Z,14.02
2022-12-29T21:22:38.698Z,13.15
2022-12-29T21:25:08.925Z,14.80
2022-12-29T21:27:35.385Z,14.52
2022-12-29T21:30:02.771Z,13.02
2022-12-29T21:32:29.187Z,14.68
2022-12-29T21:34:57.393Z,13.75
2022-12-29T21:37:24.076Z,15.88
2022-12-29T21:39:51.375Z,13.27
2022-12-29T21:42:18.416Z,13.55
2022-12-29T21:45:04.521Z,13.40
2022-12-29T21:47:53.225Z,15.30
2022-12-29T21:50:20.576Z,17.60
2022-12-29T21:52:47.007Z,25.35
2022-12-29T21:55:13.473Z,19.75
2022-12-29T21:57:59.503Z,19.42
2022-12-29T22:00:45.293Z,18.55
2022-12-29T22:03:31.096Z,20.08
2022-12-29T22:06:17.155Z,17.02
2022-12-29T22:09:02.149Z,16.25
2022-12-29T22:11:48.325Z,20.52
2022-12-29T22:14:14.824Z,22.90
2022-12-29T22:16:42.281Z,27.13
2022-12-29T22:19:10.547Z,19.40
2022-12-29T22:21:37.790Z,19.88
2022-12-29T22:24:05.265Z,19.45
2022-12-29T22:26:31.739Z,20.73
2022-12-29T22:28:59.570Z,21.45
2022-12-29T22:31:29.294Z,19.77
2022-12-29T22:34:02.400Z,21.02
2022-12-29T22:36:29.304Z,19.42
2022-12-29T22:38:56.551Z,16.23
2022-12-29T22:41:23.023Z,15.50
2022-12-29T22:43:51.190Z,17.98
2022-12-29T22:46:17.818Z,15.88
2022-12-29T22:48:45.156Z,17.02
2022-12-29T22:51:11.579Z,15.00
2022-12-29T22:53:38.830Z,15.32
2022-12-29T22:56:10.275Z,14.30
2022-12-29T22:58:40.843Z,14.75
2022-12-29T23:01:08.154Z,22.05
2022-12-29T23:03:35.808Z,16.23
2022-12-29T23:06:06.422Z,13.65
2022-12-29T23:08:35.330Z,12.07
2022-12-29T23:11:02.127Z,13.57
2022-12-29T23:13:29.908Z,14.05
2022-12-29T23:15:56.969Z,12.23
2022-12-29T23:18:23.444Z,13.15
2022-12-29T23:20:50.825Z,12.55
2022-12-29T23:23:48.505Z,10.77
2022-12-29T23:26:16.290Z,10.75
2022-12-29T23:28:42.804Z,10.93
2022-12-29T23:31:09.946Z,11.73
2022-12-29T23:33:36.655Z,11.23
2022-12-29T23:36:03.328Z,14.65
2022-12-29T23:38:30.383Z,17.15
2022-12-29T23:40:56.958Z,13.75
2022-12-29T23:43:23.546Z,15.90
2022-12-29T23:45:51.169Z,13.30
2022-12-29T23:48:18.544Z,13.77
2022-12-29T23:50:45.270Z,12.55
2022-12-29T23:53:11.788Z,12.07
2022-12-29T23:55:42.509Z,11.73
2022-12-29T23:58:09.151Z,9.55
